sensor_id;sensor_type;location;lat;lon;timestamp;P1;durP1;ratioP1;P2;durP2;ratioP2
74777;SDS011;63298;53.164;8.610;2023-07-08T00:00:13;4.43;;;2.17;;
74777;SDS011;63298;53.164;8.610;2023-07-08T00:02:43;7.88;;;3.15;;
74777;SDS011;63298;53.164;8.610;2023-07-08T00:05:13;3.20;;;2.45;;
74777;SDS011;63298;53.164;8.610;2023-07-08T00:07:40;4.07;;;2.33;;
74777;SDS011;63298;53.164;8.610;2023-07-08T00:12:50;3.58;;;2.42;;
74777;SDS011;63298;53.164;8.610;2023-07-08T00:15:17;4.00;;;2.72;;
74777;SDS011;63298;53.164;8.610;2023-07-08T00:17:50;5.72;;;2.67;;
74777;SDS011;63298;53.164;8.610;2023-07-08T00:20:20;4.75;;;2.30;;
74777;SDS011;63298;53.164;8.610;2023-07-08T00:23:07;6.18;;;2.70;;
74777;SDS011;63298;53.164;8.610;2023-07-08T00:25:37;6.05;;;2.90;;
74777;SDS011;63298;53.164;8.610;2023-07-08T00:28:12;6.60;;;2.78;;
74777;SDS011;63298;53.164;8.610;2023-07-08T00:30:57;6.95;;;3.03;;
74777;SDS011;63298;53.164;8.610;2023-07-08T00:33:29;4.85;;;2.80;;
74777;SDS011;63298;53.164;8.610;2023-07-08T00:36:07;9.40;;;3.00;;
74777;SDS011;63298;53.164;8.610;2023-07-08T00:38:49;5.25;;;2.75;;
74777;SDS011;63298;53.164;8.610;2023-07-08T00:41:34;4.05;;;2.72;;
74777;SDS011;63298;53.164;8.610;2023-07-08T00:44:11;5.35;;;2.90;;
74777;SDS011;63298;53.164;8.610;2023-07-08T00:49:53;5.65;;;2.70;;
74777;SDS011;63298;53.164;8.610;2023-07-08T00:52:33;3.80;;;2.47;;
74777;SDS011;63298;53.164;8.610;2023-07-08T00:55:19;6.97;;;2.65;;
74777;SDS011;63298;53.164;8.610;2023-07-08T00:57:54;4.07;;;2.67;;
74777;SDS011;63298;53.164;8.610;2023-07-08T01:00:29;4.47;;;2.85;;
74777;SDS011;63298;53.164;8.610;2023-07-08T01:02:55;8.27;;;2.83;;
74777;SDS011;63298;53.164;8.610;2023-07-08T01:05:38;4.68;;;2.80;;
74777;SDS011;63298;53.164;8.610;2023-07-08T01:08:20;5.13;;;2.80;;
74777;SDS011;63298;53.164;8.610;2023-07-08T01:11:17;7.38;;;2.78;;
74777;SDS011;63298;53.164;8.610;2023-07-08T01:13:50;3.85;;;2.88;;
74777;SDS011;63298;53.164;8.610;2023-07-08T01:16:20;8.48;;;2.75;;
74777;SDS011;63298;53.164;8.610;2023-07-08T01:18:55;4.20;;;2.78;;
74777;SDS011;63298;53.164;8.610;2023-07-08T01:22:08;5.25;;;2.83;;
74777;SDS011;63298;53.164;8.610;2023-07-08T01:24:52;5.38;;;2.75;;
74777;SDS011;63298;53.164;8.610;2023-07-08T01:27:33;4.22;;;3.05;;
74777;SDS011;63298;53.164;8.610;2023-07-08T01:30:19;6.00;;;3.05;;
74777;SDS011;63298;53.164;8.610;2023-07-08T01:33:25;2.63;;;2.42;;
74777;SDS011;63298;53.164;8.610;2023-07-08T01:38:50;6.32;;;3.13;;
74777;SDS011;63298;53.164;8.610;2023-07-08T01:41:19;6.60;;;2.75;;
74777;SDS011;63298;53.164;8.610;2023-07-08T01:43:55;4.80;;;3.20;;
74777;SDS011;63298;53.164;8.610;2023-07-08T01:46:29;5.15;;;2.90;;
74777;SDS011;63298;53.164;8.610;2023-07-08T01:49:01;4.35;;;2.80;;
74777;SDS011;63298;53.164;8.610;2023-07-08T01:51:30;5.47;;;2.75;;
74777;SDS011;63298;53.164;8.610;2023-07-08T01:54:07;8.35;;;3.42;;
74777;SDS011;63298;53.164;8.610;2023-07-08T01:56:45;3.20;;;2.60;;
74777;SDS011;63298;53.164;8.610;2023-07-08T01:59:26;5.70;;;3.00;;
74777;SDS011;63298;53.164;8.610;2023-07-08T02:02:04;3.55;;;2.72;;
74777;SDS011;63298;53.164;8.610;2023-07-08T02:04:44;4.75;;;2.90;;
74777;SDS011;63298;53.164;8.610;2023-07-08T02:07:29;2.60;;;2.33;;
74777;SDS011;63298;53.164;8.610;2023-07-08T02:10:00;5.32;;;2.80;;
74777;SDS011;63298;53.164;8.610;2023-07-08T02:12:29;3.58;;;2.92;;
74777;SDS011;63298;53.164;8.610;2023-07-08T02:14:55;5.13;;;2.97;;
74777;SDS011;63298;53.164;8.610;2023-07-08T02:17:20;4.45;;;2.85;;
74777;SDS011;63298;53.164;8.610;2023-07-08T02:19:46;5.53;;;2.97;;
74777;SDS011;63298;53.164;8.610;2023-07-08T02:22:11;5.10;;;3.00;;
74777;SDS011;63298;53.164;8.610;2023-07-08T02:24:36;4.07;;;2.88;;
74777;SDS011;63298;53.164;8.610;2023-07-08T02:27:02;4.90;;;2.92;;
74777;SDS011;63298;53.164;8.610;2023-07-08T02:29:27;6.22;;;2.88;;
74777;SDS011;63298;53.164;8.610;2023-07-08T02:31:53;3.83;;;2.60;;
74777;SDS011;63298;53.164;8.610;2023-07-08T02:34:20;6.68;;;3.13;;
74777;SDS011;63298;53.164;8.610;2023-07-08T02:36:46;4.50;;;3.35;;
74777;SDS011;63298;53.164;8.610;2023-07-08T02:39:12;3.35;;;2.85;;
74777;SDS011;63298;53.164;8.610;2023-07-08T02:41:37;3.25;;;2.95;;
74777;SDS011;63298;53.164;8.610;2023-07-08T02:44:02;5.18;;;3.60;;
74777;SDS011;63298;53.164;8.610;2023-07-08T02:46:28;3.45;;;3.15;;
74777;SDS011;63298;53.164;8.610;2023-07-08T02:48:53;6.65;;;3.20;;
74777;SDS011;63298;53.164;8.610;2023-07-08T02:51:19;5.68;;;3.20;;
74777;SDS011;63298;53.164;8.610;2023-07-08T02:53:45;5.32;;;3.33;;
74777;SDS011;63298;53.164;8.610;2023-07-08T02:56:10;4.97;;;3.15;;
74777;SDS011;63298;53.164;8.610;2023-07-08T02:58:36;10.52;;;3.28;;
74777;SDS011;63298;53.164;8.610;2023-07-08T03:01:01;5.18;;;3.28;;
74777;SDS011;63298;53.164;8.610;2023-07-08T03:03:27;8.85;;;3.15;;
74777;SDS011;63298;53.164;8.610;2023-07-08T03:05:56;6.75;;;3.40;;
74777;SDS011;63298;53.164;8.610;2023-07-08T03:08:26;3.53;;;3.00;;
74777;SDS011;63298;53.164;8.610;2023-07-08T03:10:58;7.68;;;3.40;;
74777;SDS011;63298;53.164;8.610;2023-07-08T03:13:25;3.28;;;2.97;;
74777;SDS011;63298;53.164;8.610;2023-07-08T03:15:54;4.78;;;3.20;;
74777;SDS011;63298;53.164;8.610;2023-07-08T03:18:21;3.42;;;2.70;;
74777;SDS011;63298;53.164;8.610;2023-07-08T03:20:48;6.93;;;2.75;;
74777;SDS011;63298;53.164;8.610;2023-07-08T03:23:13;6.10;;;2.95;;
74777;SDS011;63298;53.164;8.610;2023-07-08T03:25:39;6.35;;;3.15;;
74777;SDS011;63298;53.164;8.610;2023-07-08T03:28:04;3.22;;;2.90;;
74777;SDS011;63298;53.164;8.610;2023-07-08T03:30:30;3.42;;;2.65;;
74777;SDS011;63298;53.164;8.610;2023-07-08T03:32:56;3.28;;;2.83;;
74777;SDS011;63298;53.164;8.610;2023-07-08T03:35:31;3.55;;;2.78;;
74777;SDS011;63298;53.164;8.610;2023-07-08T03:37:57;5.95;;;2.47;;
74777;SDS011;63298;53.164;8.610;2023-07-08T03:40:33;5.90;;;3.35;;
74777;SDS011;63298;53.164;8.610;2023-07-08T03:42:59;4.13;;;3.08;;
74777;SDS011;63298;53.164;8.610;2023-07-08T03:45:27;4.45;;;2.90;;
74777;SDS011;63298;53.164;8.610;2023-07-08T03:47:53;3.83;;;2.63;;
74777;SDS011;63298;53.164;8.610;2023-07-08T03:50:19;5.93;;;3.08;;
74777;SDS011;63298;53.164;8.610;2023-07-08T03:52:47;3.42;;;2.63;;
74777;SDS011;63298;53.164;8.610;2023-07-08T03:55:14;5.55;;;2.63;;
74777;SDS011;63298;53.164;8.610;2023-07-08T03:57:39;2.63;;;2.47;;
74777;SDS011;63298;53.164;8.610;2023-07-08T04:00:10;4.95;;;2.85;;
74777;SDS011;63298;53.164;8.610;2023-07-08T04:02:36;3.58;;;2.65;;
74777;SDS011;63298;53.164;8.610;2023-07-08T04:05:02;5.45;;;2.95;;
74777;SDS011;63298;53.164;8.610;2023-07-08T04:07:28;8.32;;;3.00;;
74777;SDS011;63298;53.164;8.610;2023-07-08T04:09:53;5.82;;;2.60;;
74777;SDS011;63298;53.164;8.610;2023-07-08T04:12:21;3.30;;;2.97;;
74777;SDS011;63298;53.164;8.610;2023-07-08T04:14:47;5.53;;;3.00;;
74777;SDS011;63298;53.164;8.610;2023-07-08T04:17:12;5.32;;;3.00;;
74777;SDS011;63298;53.164;8.610;2023-07-08T04:19:42;6.72;;;2.85;;
74777;SDS011;63298;53.164;8.610;2023-07-08T04:22:08;4.93;;;2.72;;
74777;SDS011;63298;53.164;8.610;2023-07-08T04:24:33;3.40;;;2.78;;
74777;SDS011;63298;53.164;8.610;2023-07-08T04:26:59;4.25;;;2.65;;
74777;SDS011;63298;53.164;8.610;2023-07-08T04:29:28;3.90;;;2.35;;
74777;SDS011;63298;53.164;8.610;2023-07-08T04:31:54;6.63;;;3.00;;
74777;SDS011;63298;53.164;8.610;2023-07-08T04:34:19;6.03;;;2.72;;
74777;SDS011;63298;53.164;8.610;2023-07-08T04:36:45;7.03;;;3.00;;
74777;SDS011;63298;53.164;8.610;2023-07-08T04:39:11;6.88;;;2.70;;
74777;SDS011;63298;53.164;8.610;2023-07-08T04:41:37;4.53;;;2.72;;
74777;SDS011;63298;53.164;8.610;2023-07-08T04:44:03;2.63;;;2.42;;
74777;SDS011;63298;53.164;8.610;2023-07-08T04:49:03;4.13;;;2.50;;
74777;SDS011;63298;53.164;8.610;2023-07-08T04:51:32;2.97;;;2.33;;
74777;SDS011;63298;53.164;8.610;2023-07-08T04:53:58;3.75;;;2.63;;
74777;SDS011;63298;53.164;8.610;2023-07-08T04:59:07;3.78;;;2.70;;
74777;SDS011;63298;53.164;8.610;2023-07-08T05:01:34;6.47;;;2.55;;
74777;SDS011;63298;53.164;8.610;2023-07-08T05:04:00;3.10;;;2.75;;
74777;SDS011;63298;53.164;8.610;2023-07-08T05:06:26;3.75;;;2.60;;
74777;SDS011;63298;53.164;8.610;2023-07-08T05:08:52;2.65;;;2.45;;
74777;SDS011;63298;53.164;8.610;2023-07-08T05:11:18;5.45;;;2.50;;
74777;SDS011;63298;53.164;8.610;2023-07-08T05:13:44;4.93;;;2.70;;
74777;SDS011;63298;53.164;8.610;2023-07-08T05:16:09;3.55;;;2.70;;
74777;SDS011;63298;53.164;8.610;2023-07-08T05:18:34;4.40;;;2.47;;
74777;SDS011;63298;53.164;8.610;2023-07-08T05:21:00;4.47;;;2.67;;
74777;SDS011;63298;53.164;8.610;2023-07-08T05:23:26;4.63;;;2.25;;
74777;SDS011;63298;53.164;8.610;2023-07-08T05:25:51;2.70;;;2.50;;
74777;SDS011;63298;53.164;8.610;2023-07-08T05:28:17;7.35;;;2.58;;
74777;SDS011;63298;53.164;8.610;2023-07-08T05:30:42;5.90;;;2.55;;
74777;SDS011;63298;53.164;8.610;2023-07-08T05:33:08;3.20;;;2.22;;
74777;SDS011;63298;53.164;8.610;2023-07-08T05:35:34;2.75;;;2.40;;
74777;SDS011;63298;53.164;8.610;2023-07-08T05:37:59;3.70;;;2.53;;
74777;SDS011;63298;53.164;8.610;2023-07-08T05:40:26;3.13;;;2.35;;
74777;SDS011;63298;53.164;8.610;2023-07-08T05:42:51;3.40;;;2.13;;
74777;SDS011;63298;53.164;8.610;2023-07-08T05:45:16;4.82;;;2.58;;
74777;SDS011;63298;53.164;8.610;2023-07-08T05:47:42;2.00;;;1.90;;
74777;SDS011;63298;53.164;8.610;2023-07-08T05:50:07;5.93;;;2.40;;
74777;SDS011;63298;53.164;8.610;2023-07-08T05:52:33;2.97;;;2.25;;
74777;SDS011;63298;53.164;8.610;2023-07-08T05:54:58;3.05;;;2.28;;
74777;SDS011;63298;53.164;8.610;2023-07-08T05:57:24;2.50;;;2.17;;
74777;SDS011;63298;53.164;8.610;2023-07-08T05:59:49;4.05;;;2.63;;
74777;SDS011;63298;53.164;8.610;2023-07-08T06:02:15;3.80;;;2.17;;
74777;SDS011;63298;53.164;8.610;2023-07-08T06:04:40;3.10;;;2.17;;
74777;SDS011;63298;53.164;8.610;2023-07-08T06:07:05;3.80;;;1.92;;
74777;SDS011;63298;53.164;8.610;2023-07-08T06:09:31;4.18;;;2.22;;
74777;SDS011;63298;53.164;8.610;2023-07-08T06:11:57;2.38;;;2.28;;
74777;SDS011;63298;53.164;8.610;2023-07-08T06:14:22;4.53;;;2.33;;
74777;SDS011;63298;53.164;8.610;2023-07-08T06:16:47;3.92;;;2.25;;
74777;SDS011;63298;53.164;8.610;2023-07-08T06:19:13;3.42;;;2.13;;
74777;SDS011;63298;53.164;8.610;2023-07-08T06:21:38;3.35;;;2.42;;
74777;SDS011;63298;53.164;8.610;2023-07-08T06:24:04;3.60;;;2.28;;
74777;SDS011;63298;53.164;8.610;2023-07-08T06:26:33;3.58;;;2.67;;
74777;SDS011;63298;53.164;8.610;2023-07-08T06:28:59;3.30;;;2.47;;
74777;SDS011;63298;53.164;8.610;2023-07-08T06:31:24;7.20;;;2.35;;
74777;SDS011;63298;53.164;8.610;2023-07-08T06:33:52;4.05;;;2.42;;
74777;SDS011;63298;53.164;8.610;2023-07-08T06:36:25;3.35;;;2.45;;
74777;SDS011;63298;53.164;8.610;2023-07-08T06:38:56;4.60;;;2.50;;
74777;SDS011;63298;53.164;8.610;2023-07-08T06:41:22;2.75;;;2.30;;
74777;SDS011;63298;53.164;8.610;2023-07-08T06:43:48;5.00;;;2.50;;
74777;SDS011;63298;53.164;8.610;2023-07-08T06:46:13;2.72;;;2.30;;
74777;SDS011;63298;53.164;8.610;2023-07-08T06:48:39;2.63;;;2.03;;
74777;SDS011;63298;53.164;8.610;2023-07-08T06:51:04;3.03;;;2.50;;
74777;SDS011;63298;53.164;8.610;2023-07-08T06:53:30;2.42;;;2.22;;
74777;SDS011;63298;53.164;8.610;2023-07-08T06:56:06;11.13;;;2.47;;
74777;SDS011;63298;53.164;8.610;2023-07-08T06:58:58;1.80;;;1.70;;
74777;SDS011;63298;53.164;8.610;2023-07-08T07:01:24;3.58;;;2.63;;
74777;SDS011;63298;53.164;8.610;2023-07-08T07:03:49;4.05;;;2.50;;
74777;SDS011;63298;53.164;8.610;2023-07-08T07:06:15;4.13;;;2.30;;
74777;SDS011;63298;53.164;8.610;2023-07-08T07:08:40;3.47;;;2.92;;
74777;SDS011;63298;53.164;8.610;2023-07-08T07:11:05;4.35;;;2.40;;
74777;SDS011;63298;53.164;8.610;2023-07-08T07:13:31;3.70;;;2.08;;
74777;SDS011;63298;53.164;8.610;2023-07-08T07:15:56;2.78;;;2.13;;
74777;SDS011;63298;53.164;8.610;2023-07-08T07:18:22;4.25;;;2.42;;
74777;SDS011;63298;53.164;8.610;2023-07-08T07:20:52;2.67;;;2.35;;
74777;SDS011;63298;53.164;8.610;2023-07-08T07:23:18;5.88;;;2.38;;
74777;SDS011;63298;53.164;8.610;2023-07-08T07:25:45;2.80;;;2.55;;
74777;SDS011;63298;53.164;8.610;2023-07-08T07:28:10;3.58;;;2.60;;
74777;SDS011;63298;53.164;8.610;2023-07-08T07:30:36;2.60;;;2.33;;
74777;SDS011;63298;53.164;8.610;2023-07-08T07:33:01;3.72;;;2.53;;
74777;SDS011;63298;53.164;8.610;2023-07-08T07:35:27;3.03;;;2.35;;
74777;SDS011;63298;53.164;8.610;2023-07-08T07:37:53;2.95;;;2.60;;
74777;SDS011;63298;53.164;8.610;2023-07-08T07:40:18;7.85;;;2.45;;
74777;SDS011;63298;53.164;8.610;2023-07-08T07:42:44;4.03;;;2.50;;
74777;SDS011;63298;53.164;8.610;2023-07-08T07:45:11;3.88;;;2.50;;
74777;SDS011;63298;53.164;8.610;2023-07-08T07:47:40;3.70;;;2.53;;
74777;SDS011;63298;53.164;8.610;2023-07-08T07:50:06;2.38;;;2.20;;
74777;SDS011;63298;53.164;8.610;2023-07-08T07:52:33;2.45;;;2.10;;
74777;SDS011;63298;53.164;8.610;2023-07-08T07:54:59;2.33;;;2.13;;
74777;SDS011;63298;53.164;8.610;2023-07-08T07:57:27;2.78;;;2.47;;
74777;SDS011;63298;53.164;8.610;2023-07-08T07:59:52;2.33;;;2.20;;
74777;SDS011;63298;53.164;8.610;2023-07-08T08:02:18;2.55;;;2.33;;
74777;SDS011;63298;53.164;8.610;2023-07-08T08:04:44;3.45;;;2.50;;
74777;SDS011;63298;53.164;8.610;2023-07-08T08:07:09;9.18;;;2.72;;
74777;SDS011;63298;53.164;8.610;2023-07-08T08:09:35;2.60;;;2.20;;
74777;SDS011;63298;53.164;8.610;2023-07-08T08:12:02;3.78;;;2.15;;
74777;SDS011;63298;53.164;8.610;2023-07-08T08:14:29;2.38;;;2.17;;
74777;SDS011;63298;53.164;8.610;2023-07-08T08:16:55;2.58;;;2.38;;
74777;SDS011;63298;53.164;8.610;2023-07-08T08:19:20;2.22;;;2.03;;
74777;SDS011;63298;53.164;8.610;2023-07-08T08:21:46;3.40;;;2.22;;
74777;SDS011;63298;53.164;8.610;2023-07-08T08:24:11;3.65;;;2.33;;
74777;SDS011;63298;53.164;8.610;2023-07-08T08:26:36;3.13;;;2.40;;
74777;SDS011;63298;53.164;8.610;2023-07-08T08:29:02;2.20;;;1.98;;
74777;SDS011;63298;53.164;8.610;2023-07-08T08:31:27;2.55;;;2.15;;
74777;SDS011;63298;53.164;8.610;2023-07-08T08:33:53;5.18;;;2.28;;
74777;SDS011;63298;53.164;8.610;2023-07-08T08:36:19;3.45;;;2.50;;
74777;SDS011;63298;53.164;8.610;2023-07-08T08:38:44;2.00;;;1.88;;
74777;SDS011;63298;53.164;8.610;2023-07-08T08:41:12;2.42;;;2.22;;
74777;SDS011;63298;53.164;8.610;2023-07-08T08:46:04;3.17;;;2.25;;
74777;SDS011;63298;53.164;8.610;2023-07-08T08:48:37;6.43;;;2.00;;
74777;SDS011;63298;53.164;8.610;2023-07-08T08:51:10;2.72;;;2.28;;
74777;SDS011;63298;53.164;8.610;2023-07-08T08:53:39;2.95;;;2.65;;
74777;SDS011;63298;53.164;8.610;2023-07-08T08:56:21;2.65;;;2.17;;
74777;SDS011;63298;53.164;8.610;2023-07-08T09:01:33;2.10;;;2.00;;
74777;SDS011;63298;53.164;8.610;2023-07-08T09:07:00;3.17;;;2.22;;
74777;SDS011;63298;53.164;8.610;2023-07-08T09:09:33;3.08;;;2.40;;
74777;SDS011;63298;53.164;8.610;2023-07-08T09:12:04;3.58;;;2.10;;
74777;SDS011;63298;53.164;8.610;2023-07-08T09:14:34;2.10;;;1.90;;
74777;SDS011;63298;53.164;8.610;2023-07-08T09:19:40;8.10;;;2.53;;
74777;SDS011;63298;53.164;8.610;2023-07-08T09:24:50;4.28;;;2.45;;
74777;SDS011;63298;53.164;8.610;2023-07-08T09:27:18;2.22;;;1.98;;
74777;SDS011;63298;53.164;8.610;2023-07-08T09:29:45;2.28;;;2.13;;
74777;SDS011;63298;53.164;8.610;2023-07-08T09:35:25;2.75;;;2.20;;
74777;SDS011;63298;53.164;8.610;2023-07-08T09:37:33;4.18;;;2.10;;
74777;SDS011;63298;53.164;8.610;2023-07-08T09:40:16;3.38;;;2.30;;
74777;SDS011;63298;53.164;8.610;2023-07-08T09:42:56;9.88;;;2.72;;
74777;SDS011;63298;53.164;8.610;2023-07-08T09:45:28;7.18;;;3.03;;
74777;SDS011;63298;53.164;8.610;2023-07-08T09:48:04;2.60;;;2.40;;
74777;SDS011;63298;53.164;8.610;2023-07-08T09:50:42;2.67;;;2.47;;
74777;SDS011;63298;53.164;8.610;2023-07-08T09:53:11;5.65;;;2.40;;
74777;SDS011;63298;53.164;8.610;2023-07-08T09:55:39;3.75;;;2.30;;
74777;SDS011;63298;53.164;8.610;2023-07-08T09:58:04;3.80;;;2.40;;
74777;SDS011;63298;53.164;8.610;2023-07-08T10:00:42;4.13;;;2.70;;
74777;SDS011;63298;53.164;8.610;2023-07-08T10:03:38;3.58;;;2.50;;
74777;SDS011;63298;53.164;8.610;2023-07-08T10:06:05;3.25;;;2.40;;
74777;SDS011;63298;53.164;8.610;2023-07-08T10:08:40;4.80;;;2.55;;
74777;SDS011;63298;53.164;8.610;2023-07-08T10:11:13;3.10;;;2.45;;
74777;SDS011;63298;53.164;8.610;2023-07-08T10:13:44;2.55;;;2.33;;
74777;SDS011;63298;53.164;8.610;2023-07-08T10:16:15;3.88;;;2.30;;
74777;SDS011;63298;53.164;8.610;2023-07-08T10:21:30;2.47;;;2.28;;
74777;SDS011;63298;53.164;8.610;2023-07-08T10:24:21;3.03;;;2.45;;
74777;SDS011;63298;53.164;8.610;2023-07-08T10:40:34;3.40;;;2.33;;
74777;SDS011;63298;53.164;8.610;2023-07-08T10:43:18;2.80;;;2.40;;
74777;SDS011;63298;53.164;8.610;2023-07-08T11:03:13;2.40;;;2.20;;
74777;SDS011;63298;53.164;8.610;2023-07-08T11:05:49;3.30;;;2.63;;
74777;SDS011;63298;53.164;8.610;2023-07-08T11:08:24;4.57;;;2.70;;
74777;SDS011;63298;53.164;8.610;2023-07-08T11:11:23;3.30;;;2.50;;
74777;SDS011;63298;53.164;8.610;2023-07-08T11:13:53;2.35;;;2.15;;
74777;SDS011;63298;53.164;8.610;2023-07-08T11:16:35;5.10;;;2.70;;
74777;SDS011;63298;53.164;8.610;2023-07-08T11:19:08;5.25;;;2.65;;
74777;SDS011;63298;53.164;8.610;2023-07-08T11:21:47;2.05;;;1.95;;
74777;SDS011;63298;53.164;8.610;2023-07-08T11:24:20;3.25;;;2.17;;
74777;SDS011;63298;53.164;8.610;2023-07-08T11:27:05;4.15;;;2.30;;
74777;SDS011;63298;53.164;8.610;2023-07-08T11:29:41;2.50;;;2.30;;
74777;SDS011;63298;53.164;8.610;2023-07-08T11:32:19;2.85;;;2.50;;
74777;SDS011;63298;53.164;8.610;2023-07-08T11:34:47;3.13;;;2.53;;
74777;SDS011;63298;53.164;8.610;2023-07-08T11:37:18;3.45;;;2.47;;
74777;SDS011;63298;53.164;8.610;2023-07-08T11:39:45;8.82;;;2.72;;
74777;SDS011;63298;53.164;8.610;2023-07-08T11:44:43;3.03;;;2.72;;
74777;SDS011;63298;53.164;8.610;2023-07-08T11:49:56;2.67;;;2.28;;
74777;SDS011;63298;53.164;8.610;2023-07-08T11:52:22;3.05;;;2.47;;
74777;SDS011;63298;53.164;8.610;2023-07-08T11:54:48;3.25;;;2.92;;
74777;SDS011;63298;53.164;8.610;2023-07-08T11:57:40;5.40;;;2.38;;
74777;SDS011;63298;53.164;8.610;2023-07-08T12:00:22;2.97;;;2.50;;
74777;SDS011;63298;53.164;8.610;2023-07-08T12:02:51;4.70;;;2.60;;
74777;SDS011;63298;53.164;8.610;2023-07-08T12:05:28;4.82;;;2.80;;
74777;SDS011;63298;53.164;8.610;2023-07-08T12:07:55;3.00;;;2.67;;
74777;SDS011;63298;53.164;8.610;2023-07-08T12:10:34;2.78;;;2.50;;
74777;SDS011;63298;53.164;8.610;2023-07-08T12:13:02;2.65;;;2.47;;
74777;SDS011;63298;53.164;8.610;2023-07-08T12:15:29;4.85;;;2.78;;
74777;SDS011;63298;53.164;8.610;2023-07-08T12:18:16;5.07;;;2.95;;
74777;SDS011;63298;53.164;8.610;2023-07-08T12:20:48;3.10;;;2.65;;
74777;SDS011;63298;53.164;8.610;2023-07-08T12:23:21;3.58;;;2.63;;
74777;SDS011;63298;53.164;8.610;2023-07-08T12:25:49;3.10;;;2.80;;
74777;SDS011;63298;53.164;8.610;2023-07-08T12:28:15;2.72;;;2.53;;
74777;SDS011;63298;53.164;8.610;2023-07-08T12:30:41;3.72;;;2.63;;
74777;SDS011;63298;53.164;8.610;2023-07-08T12:33:12;4.03;;;2.58;;
74777;SDS011;63298;53.164;8.610;2023-07-08T12:35:52;3.20;;;2.50;;
74777;SDS011;63298;53.164;8.610;2023-07-08T12:40:49;3.63;;;2.75;;
74777;SDS011;63298;53.164;8.610;2023-07-08T12:43:15;3.13;;;2.92;;
74777;SDS011;63298;53.164;8.610;2023-07-08T12:45:42;3.22;;;2.90;;
74777;SDS011;63298;53.164;8.610;2023-07-08T12:48:08;6.53;;;2.97;;
74777;SDS011;63298;53.164;8.610;2023-07-08T12:50:34;3.30;;;3.00;;
74777;SDS011;63298;53.164;8.610;2023-07-08T12:53:03;7.35;;;3.40;;
74777;SDS011;63298;53.164;8.610;2023-07-08T12:55:30;3.28;;;3.05;;
74777;SDS011;63298;53.164;8.610;2023-07-08T12:57:56;3.50;;;3.20;;
74777;SDS011;63298;53.164;8.610;2023-07-08T13:00:24;2.83;;;2.47;;
74777;SDS011;63298;53.164;8.610;2023-07-08T13:02:55;8.40;;;3.60;;
74777;SDS011;63298;53.164;8.610;2023-07-08T13:05:23;4.30;;;3.38;;
74777;SDS011;63298;53.164;8.610;2023-07-08T13:07:51;5.35;;;3.20;;
74777;SDS011;63298;53.164;8.610;2023-07-08T13:10:21;5.00;;;3.05;;
74777;SDS011;63298;53.164;8.610;2023-07-08T13:12:52;6.40;;;3.10;;
74777;SDS011;63298;53.164;8.610;2023-07-08T13:15:24;8.82;;;3.40;;
74777;SDS011;63298;53.164;8.610;2023-07-08T13:17:56;5.80;;;3.78;;
74777;SDS011;63298;53.164;8.610;2023-07-08T13:20:22;16.52;;;3.90;;
74777;SDS011;63298;53.164;8.610;2023-07-08T13:23:00;3.55;;;3.25;;
74777;SDS011;63298;53.164;8.610;2023-07-08T13:25:28;4.30;;;3.13;;
74777;SDS011;63298;53.164;8.610;2023-07-08T13:28:00;3.30;;;2.97;;
74777;SDS011;63298;53.164;8.610;2023-07-08T13:30:31;3.13;;;2.70;;
74777;SDS011;63298;53.164;8.610;2023-07-08T13:32:57;3.10;;;2.80;;
74777;SDS011;63298;53.164;8.610;2023-07-08T13:35:28;4.18;;;2.97;;
74777;SDS011;63298;53.164;8.610;2023-07-08T13:38:01;3.50;;;3.13;;
74777;SDS011;63298;53.164;8.610;2023-07-08T13:40:30;3.38;;;3.08;;
74777;SDS011;63298;53.164;8.610;2023-07-08T13:42:57;3.85;;;3.20;;
74777;SDS011;63298;53.164;8.610;2023-07-08T13:45:24;5.10;;;3.42;;
74777;SDS011;63298;53.164;8.610;2023-07-08T13:48:08;3.88;;;3.58;;
74777;SDS011;63298;53.164;8.610;2023-07-08T13:50:41;3.05;;;2.85;;
74777;SDS011;63298;53.164;8.610;2023-07-08T13:53:18;4.78;;;3.30;;
74777;SDS011;63298;53.164;8.610;2023-07-08T13:55:56;3.65;;;3.30;;
74777;SDS011;63298;53.164;8.610;2023-07-08T13:58:25;3.65;;;3.22;;
74777;SDS011;63298;53.164;8.610;2023-07-08T14:00:53;4.93;;;3.47;;
74777;SDS011;63298;53.164;8.610;2023-07-08T14:03:18;9.40;;;3.10;;
74777;SDS011;63298;53.164;8.610;2023-07-08T14:05:45;5.40;;;3.05;;
74777;SDS011;63298;53.164;8.610;2023-07-08T14:08:12;11.10;;;3.10;;
74777;SDS011;63298;53.164;8.610;2023-07-08T14:10:40;4.00;;;3.70;;
74777;SDS011;63298;53.164;8.610;2023-07-08T14:13:05;4.60;;;3.28;;
74777;SDS011;63298;53.164;8.610;2023-07-08T14:15:30;3.55;;;3.25;;
74777;SDS011;63298;53.164;8.610;2023-07-08T14:17:56;4.30;;;3.75;;
74777;SDS011;63298;53.164;8.610;2023-07-08T14:20:21;3.67;;;2.97;;
74777;SDS011;63298;53.164;8.610;2023-07-08T14:22:51;3.97;;;3.13;;
74777;SDS011;63298;53.164;8.610;2023-07-08T14:25:17;3.72;;;3.05;;
74777;SDS011;63298;53.164;8.610;2023-07-08T14:27:42;3.67;;;3.33;;
74777;SDS011;63298;53.164;8.610;2023-07-08T14:30:09;3.38;;;3.13;;
74777;SDS011;63298;53.164;8.610;2023-07-08T14:32:35;6.32;;;3.58;;
74777;SDS011;63298;53.164;8.610;2023-07-08T14:38:11;3.33;;;3.03;;
74777;SDS011;63298;53.164;8.610;2023-07-08T14:40:38;3.85;;;3.30;;
74777;SDS011;63298;53.164;8.610;2023-07-08T14:45:33;4.43;;;3.35;;
74777;SDS011;63298;53.164;8.610;2023-07-08T14:48:10;4.93;;;3.40;;
74777;SDS011;63298;53.164;8.610;2023-07-08T14:50:37;4.90;;;3.25;;
74777;SDS011;63298;53.164;8.610;2023-07-08T14:53:03;3.97;;;3.40;;
74777;SDS011;63298;53.164;8.610;2023-07-08T14:55:28;4.15;;;3.20;;
74777;SDS011;63298;53.164;8.610;2023-07-08T14:57:54;3.35;;;3.15;;
74777;SDS011;63298;53.164;8.610;2023-07-08T15:00:20;5.20;;;3.13;;
74777;SDS011;63298;53.164;8.610;2023-07-08T15:02:46;5.03;;;2.97;;
74777;SDS011;63298;53.164;8.610;2023-07-08T15:05:14;4.63;;;3.17;;
74777;SDS011;63298;53.164;8.610;2023-07-08T15:07:51;4.10;;;3.70;;
74777;SDS011;63298;53.164;8.610;2023-07-08T15:10:18;6.65;;;4.38;;
74777;SDS011;63298;53.164;8.610;2023-07-08T15:12:46;3.72;;;3.35;;
74777;SDS011;63298;53.164;8.610;2023-07-08T15:15:20;5.75;;;3.88;;
74777;SDS011;63298;53.164;8.610;2023-07-08T15:17:57;4.32;;;3.40;;
74777;SDS011;63298;53.164;8.610;2023-07-08T15:20:23;3.90;;;3.50;;
74777;SDS011;63298;53.164;8.610;2023-07-08T15:22:49;5.20;;;3.83;;
74777;SDS011;63298;53.164;8.610;2023-07-08T15:25:15;8.35;;;7.57;;
74777;SDS011;63298;53.164;8.610;2023-07-08T15:27:42;8.35;;;7.03;;
74777;SDS011;63298;53.164;8.610;2023-07-08T15:33:03;5.65;;;4.25;;
74777;SDS011;63298;53.164;8.610;2023-07-08T15:35:28;4.55;;;3.90;;
74777;SDS011;63298;53.164;8.610;2023-07-08T15:37:54;6.18;;;4.13;;
74777;SDS011;63298;53.164;8.610;2023-07-08T15:40:20;4.03;;;3.47;;
74777;SDS011;63298;53.164;8.610;2023-07-08T15:42:47;4.00;;;3.65;;
74777;SDS011;63298;53.164;8.610;2023-07-08T15:45:17;4.65;;;3.83;;
74777;SDS011;63298;53.164;8.610;2023-07-08T15:47:51;3.55;;;3.25;;
74777;SDS011;63298;53.164;8.610;2023-07-08T15:50:18;4.53;;;3.60;;
74777;SDS011;63298;53.164;8.610;2023-07-08T15:52:50;5.32;;;3.90;;
74777;SDS011;63298;53.164;8.610;2023-07-08T15:55:25;4.45;;;3.25;;
74777;SDS011;63298;53.164;8.610;2023-07-08T15:57:54;3.55;;;3.25;;
74777;SDS011;63298;53.164;8.610;2023-07-08T16:00:24;5.95;;;3.80;;
74777;SDS011;63298;53.164;8.610;2023-07-08T16:02:59;5.45;;;3.90;;
74777;SDS011;63298;53.164;8.610;2023-07-08T16:05:28;3.63;;;3.33;;
74777;SDS011;63298;53.164;8.610;2023-07-08T16:07:54;5.20;;;3.60;;
74777;SDS011;63298;53.164;8.610;2023-07-08T16:10:21;5.57;;;4.22;;
74777;SDS011;63298;53.164;8.610;2023-07-08T16:12:47;6.10;;;4.00;;
74777;SDS011;63298;53.164;8.610;2023-07-08T16:15:14;9.27;;;3.33;;
74777;SDS011;63298;53.164;8.610;2023-07-08T16:17:41;5.35;;;3.60;;
74777;SDS011;63298;53.164;8.610;2023-07-08T16:22:46;3.88;;;3.58;;
74777;SDS011;63298;53.164;8.610;2023-07-08T16:25:12;5.28;;;4.07;;